Time;durP1;ratioP1;P1;durP2;ratioP2;P2;SDS_P1;SDS_P2;PMS_P1;PMS_P2;Temp;Humidity;BMP_temperature;BMP_pressure;BME280_temperature;BME280_humidity;BME280_pressure;Samples;Min_cycle;Max_cycle;Signal;HPM_P1;HPM_P2
2021/03/09 00:01:58;;;;;;;39.97;21.07;;;7.30;99.90;;;;;;5124860;28;20167;-69
2021/03/09 00:04:24;;;;;;;46.97;22.17;;;7.40;99.90;;;;;;5126880;28;20188;-69
2021/03/09 00:06:49;;;;;;;46.50;22.53;;;7.60;99.90;;;;;;5126694;28;20167;-69
2021/03/09 00:09:15;;;;;;;49.20;23.57;;;7.50;99.90;;;;;;5125476;28;20172;-69
2021/03/09 00:11:41;;;;;;;50.43;22.20;;;7.30;99.90;;;;;;5125258;28;20166;-69
2021/03/09 00:14:06;;;;;;;50.17;22.57;;;7.20;99.90;;;;;;5125669;28;20182;-69
2021/03/09 00:16:32;;;;;;;44.47;21.77;;;7.10;99.90;;;;;;5125095;28;20167;-69
2021/03/09 00:18:57;;;;;;;46.03;22.57;;;7.00;99.90;;;;;;5126728;28;20166;-69
2021/03/09 00:21:23;;;;;;;46.87;21.50;;;6.90;99.90;;;;;;5126279;28;20182;-69
2021/03/09 00:23:49;;;;;;;43.83;21.50;;;6.90;99.90;;;;;;5126668;28;20174;-69
2021/03/09 00:26:14;;;;;;;44.60;22.20;;;6.80;99.90;;;;;;5126535;28;20285;-69
2021/03/09 00:28:40;;;;;;;50.40;23.50;;;6.80;99.90;;;;;;5126366;28;20241;-69
2021/03/09 00:31:05;;;;;;;52.83;23.93;;;6.80;99.90;;;;;;5126061;28;20238;-69
2021/03/09 00:33:31;;;;;;;50.93;24.10;;;6.80;99.90;;;;;;5126510;28;20181;-69
2021/03/09 00:35:57;;;;;;;49.67;25.53;;;6.70;99.90;;;;;;5126464;28;20242;-69
2021/03/09 00:38:22;;;;;;;52.07;26.63;;;6.70;99.90;;;;;;5126624;28;20167;-69
2021/03/09 00:40:48;;;;;;;53.03;25.37;;;6.70;99.90;;;;;;5126239;28;20174;-69
2021/03/09 00:43:14;;;;;;;53.17;26.17;;;6.60;99.90;;;;;;5126337;28;20222;-69
2021/03/09 00:45:40;;;;;;;63.60;28.37;;;6.70;99.90;;;;;;5126597;28;20171;-70
2021/03/09 00:48:06;;;;;;;61.53;28.83;;;6.70;99.90;;;;;;5124859;28;20231;-69
2021/03/09 00:50:32;;;;;;;63.47;27.50;;;6.60;99.90;;;;;;5126141;28;20237;-69
2021/03/09 00:52:57;;;;;;;59.53;27.50;;;6.60;99.90;;;;;;5124964;28;20174;-69
2021/03/09 00:55:23;;;;;;;58.33;26.33;;;6.60;99.90;;;;;;5126280;28;20201;-70
2021/03/09 00:57:56;;;;;;;59.13;27.83;;;6.50;99.90;;;;;;5126290;28;20163;-70
2021/03/09 01:00:22;;;;;;;57.90;26.57;;;6.50;99.90;;;;;;5126096;28;20166;-70
2021/03/09 01:02:48;;;;;;;50.90;25.77;;;6.50;99.90;;;;;;5125768;28;20178;-70
2021/03/09 01:05:14;;;;;;;52.47;25.93;;;6.50;99.90;;;;;;5126283;28;20171;-70
2021/03/09 01:07:39;;;;;;;60.97;28.30;;;6.50;99.90;;;;;;5126085;28;20177;-70
2021/03/09 01:10:05;;;;;;;59.57;26.07;;;6.50;99.90;;;;;;5126200;28;20162;-70
2021/03/09 01:12:31;;;;;;;59.40;26.53;;;6.60;99.90;;;;;;5125987;28;20159;-70
2021/03/09 01:14:56;;;;;;;57.77;26.83;;;6.60;99.90;;;;;;5126133;28;20182;-70
2021/03/09 01:17:22;;;;;;;57.80;27.27;;;6.80;99.90;;;;;;5125866;28;20250;-70
2021/03/09 01:19:48;;;;;;;58.30;27.00;;;6.80;99.90;;;;;;5125939;28;20167;-70
2021/03/09 01:22:13;;;;;;;58.73;26.47;;;6.70;99.90;;;;;;5124673;28;20188;-70
2021/03/09 01:24:39;;;;;;;67.53;31.70;;;6.80;99.90;;;;;;5127161;28;20163;-70
2021/03/09 01:27:05;;;;;;;60.97;30.00;;;6.90;99.90;;;;;;5128348;28;20169;-69
2021/03/09 01:29:30;;;;;;;58.70;27.70;;;6.80;99.90;;;;;;5128209;28;20213;-69
2021/03/09 01:31:56;;;;;;;60.70;27.73;;;6.80;99.90;;;;;;5129090;28;20180;-70
2021/03/09 01:34:22;;;;;;;56.80;26.53;;;6.90;99.90;;;;;;5129625;28;20190;-70
2021/03/09 01:36:47;;;;;;;62.63;28.03;;;6.70;99.90;;;;;;5129411;28;20196;-69
2021/03/09 01:39:14;;;;;;;63.33;28.93;;;6.60;99.90;;;;;;5129645;28;20163;-69
2021/03/09 01:41:39;;;;;;;61.10;25.80;;;6.70;99.90;;;;;;5128933;28;20194;-69
2021/03/09 01:44:05;;;;;;;73.50;29.30;;;6.70;99.90;;;;;;5129215;28;20514;-69
2021/03/09 01:46:33;;;;;;;68.07;29.30;;;6.60;99.90;;;;;;5128799;28;20198;-69
2021/03/09 01:48:59;;;;;;;60.63;29.10;;;6.60;99.90;;;;;;5128103;28;20234;-69
2021/03/09 01:51:24;;;;;;;61.37;28.10;;;6.60;99.90;;;;;;5129187;28;20166;-69
2021/03/09 01:53:51;;;;;;;62.20;27.77;;;6.80;99.90;;;;;;5129144;28;20162;-69
2021/03/09 01:56:16;;;;;;;68.90;30.87;;;6.50;99.90;;;;;;5129143;28;20186;-69
2021/03/09 01:58:48;;;;;;;57.90;28.03;;;6.80;99.90;;;;;;5127720;28;20166;-69
2021/03/09 02:01:14;;;;;;;64.47;28.40;;;6.80;99.90;;;;;;5128616;28;20167;-70
2021/03/09 02:03:40;;;;;;;62.20;29.50;;;6.60;99.90;;;;;;5127667;28;20159;-69
2021/03/09 02:06:06;;;;;;;62.03;27.43;;;6.50;99.90;;;;;;5127808;28;20184;-69
2021/03/09 02:08:32;;;;;;;60.00;28.23;;;6.50;99.90;;;;;;5128790;28;20177;-69
2021/03/09 02:10:58;;;;;;;66.47;27.63;;;6.60;99.90;;;;;;5128827;28;20237;-69
2021/03/09 02:13:32;;;;;;;61.03;28.10;;;6.50;99.90;;;;;;5128854;28;20167;-69
2021/03/09 02:16:36;;;;;;;70.40;28.73;;;6.50;99.90;;;;;;5128485;28;20185;-69
2021/03/09 02:19:36;;;;;;;66.47;29.10;;;6.30;99.90;;;;;;5125534;28;20178;-69
2021/03/09 02:22:14;;;;;;;76.33;38.10;;;6.20;99.90;;;;;;5128488;28;20174;-69
2021/03/09 02:24:42;;;;;;;78.10;36.80;;;5.90;99.90;;;;;;5127267;28;20209;-69
2021/03/09 02:27:44;;;;;;;70.53;37.03;;;6.00;99.90;;;;;;5128443;28;20163;-69
2021/03/09 02:30:25;;;;;;;69.10;36.57;;;6.00;99.90;;;;;;5128478;28;20246;-69
2021/03/09 02:33:15;;;;;;;69.40;35.90;;;6.10;99.90;;;;;;5128054;28;20170;-69
2021/03/09 02:35:48;;;;;;;68.67;35.87;;;6.10;99.90;;;;;;5120202;28;20286;-69
2021/03/09 02:38:17;;;;;;;74.87;37.70;;;6.00;99.90;;;;;;5128361;28;20631;-69
2021/03/09 02:40:44;;;;;;;70.37;36.80;;;5.90;99.90;;;;;;5128120;28;20163;-69
2021/03/09 02:43:12;;;;;;;68.57;36.13;;;6.00;99.90;;;;;;5128198;28;20249;-69
2021/03/09 02:45:40;;;;;;;72.87;35.70;;;6.00;99.90;;;;;;5126907;28;20628;-69
2021/03/09 02:48:07;;;;;;;68.20;35.30;;;5.80;99.90;;;;;;5128020;28;20179;-69
2021/03/09 02:50:34;;;;;;;67.37;36.33;;;5.80;99.90;;;;;;5127966;28;20166;-69
2021/03/09 02:53:06;;;;;;;66.93;35.70;;;5.80;99.90;;;;;;5127995;28;20226;-69
2021/03/09 02:55:35;;;;;;;65.63;36.33;;;5.80;99.90;;;;;;5127975;28;20182;-69
2021/03/09 02:58:02;;;;;;;67.70;35.83;;;5.90;99.90;;;;;;5128005;28;20237;-69
2021/03/09 03:00:28;;;;;;;65.03;34.47;;;6.00;99.90;;;;;;5127759;28;20171;-69
2021/03/09 03:02:54;;;;;;;69.00;35.90;;;5.90;99.90;;;;;;5126054;28;20171;-69
2021/03/09 03:05:20;;;;;;;58.37;32.07;;;5.70;99.90;;;;;;5126532;28;20216;-69
2021/03/09 03:07:46;;;;;;;66.87;32.37;;;5.60;99.90;;;;;;5127824;28;20170;-69
2021/03/09 03:10:19;;;;;;;58.47;32.07;;;5.60;99.90;;;;;;5127676;28;20251;-69
2021/03/09 03:12:47;;;;;;;55.20;31.93;;;5.70;99.90;;;;;;5126283;28;20246;-69
2021/03/09 03:15:15;;;;;;;53.87;30.43;;;5.80;99.90;;;;;;5127644;28;20231;-69
2021/03/09 03:17:43;;;;;;;57.57;30.50;;;5.60;99.90;;;;;;5125912;28;20170;-69
2021/03/09 03:20:12;;;;;;;58.67;31.07;;;5.70;99.90;;;;;;5127481;28;20193;-69
2021/03/09 03:22:40;;;;;;;56.97;31.63;;;5.70;99.90;;;;;;5127317;28;20647;-69
2021/03/09 03:25:09;;;;;;;54.20;29.90;;;5.70;99.90;;;;;;5127529;27;20162;-69
2021/03/09 03:27:37;;;;;;;61.37;31.20;;;5.60;99.90;;;;;;5127176;28;20214;-69
2021/03/09 03:30:06;;;;;;;60.47;29.80;;;5.60;99.90;;;;;;5127334;28;20186;-69
2021/03/09 03:32:32;;;;;;;54.00;30.23;;;5.60;99.90;;;;;;5126625;28;20171;-70
2021/03/09 03:34:58;;;;;;;54.97;29.63;;;5.70;99.90;;;;;;5125886;28;20223;-69
2021/03/09 03:37:23;;;;;;;52.63;28.07;;;5.70;99.90;;;;;;5127257;28;20159;-69
2021/03/09 03:39:50;;;;;;;53.13;28.13;;;5.80;99.90;;;;;;5127411;28;20155;-69
2021/03/09 03:42:16;;;;;;;59.43;30.10;;;5.70;99.90;;;;;;5126963;28;20169;-69
2021/03/09 03:44:42;;;;;;;54.67;28.57;;;5.70;99.90;;;;;;5125832;28;20173;-68
2021/03/09 03:47:08;;;;;;;53.03;29.63;;;5.60;99.90;;;;;;5126683;28;20171;-69
2021/03/09 03:49:34;;;;;;;55.90;27.77;;;5.70;99.90;;;;;;5127150;28;20169;-69
2021/03/09 03:52:27;;;;;;;55.60;29.03;;;5.70;99.90;;;;;;5126956;28;20182;-69
2021/03/09 03:55:09;;;;;;;56.73;30.30;;;5.80;99.90;;;;;;5126975;28;20182;-69
2021/03/09 03:57:45;;;;;;;55.63;29.07;;;5.90;99.90;;;;;;5126845;28;20159;-69
2021/03/09 04:00:14;;;;;;;55.13;28.40;;;5.80;99.90;;;;;;5126819;28;20154;-69
2021/03/09 04:02:41;;;;;;;50.30;28.47;;;5.70;99.90;;;;;;5126369;28;20169;-69
2021/03/09 04:05:08;;;;;;;56.03;29.83;;;5.80;99.90;;;;;;5126588;28;20166;-69
2021/03/09 04:07:35;;;;;;;49.70;27.57;;;5.80;99.90;;;;;;5126438;28;20249;-69
2021/03/09 04:10:03;;;;;;;47.97;27.97;;;5.80;99.90;;;;;;5126661;28;20162;-69
2021/03/09 04:12:30;;;;;;;51.13;27.90;;;5.80;99.90;;;;;;5126361;28;20177;-69
2021/03/09 04:14:58;;;;;;;59.73;27.30;;;5.80;99.90;;;;;;5126799;28;20194;-69
2021/03/09 04:17:24;;;;;;;50.10;29.03;;;5.70;99.90;;;;;;5125114;28;20170;-69
2021/03/09 04:19:52;;;;;;;51.27;28.73;;;5.70;99.90;;;;;;5126752;28;20184;-69
2021/03/09 04:22:18;;;;;;;48.23;26.43;;;5.70;99.90;;;;;;5126617;28;20166;-69
2021/03/09 04:24:45;;;;;;;55.50;29.77;;;5.70;99.90;;;;;;5126655;28;20162;-69
2021/03/09 04:27:20;;;;;;;51.67;27.30;;;5.70;99.90;;;;;;5126324;28;20167;-69
2021/03/09 04:29:49;;;;;;;48.77;26.70;;;5.70;99.90;;;;;;5126585;28;20155;-69
2021/03/09 04:32:15;;;;;;;50.00;27.83;;;5.70;99.90;;;;;;5126002;28;20201;-69
2021/03/09 04:34:41;;;;;;;57.03;27.73;;;5.70;99.90;;;;;;5126462;28;20281;-69
2021/03/09 04:37:08;;;;;;;48.83;26.93;;;5.70;99.90;;;;;;5126420;28;20167;-69
2021/03/09 04:39:35;;;;;;;48.17;26.80;;;5.70;99.90;;;;;;5126540;28;20166;-69
2021/03/09 04:42:00;;;;;;;52.37;26.20;;;5.60;99.90;;;;;;5126239;28;20171;-69
2021/03/09 04:44:26;;;;;;;49.00;26.43;;;5.80;99.90;;;;;;5126449;28;20167;-69
2021/03/09 04:46:52;;;;;;;55.00;28.27;;;5.80;99.90;;;;;;5126198;28;20210;-69
2021/03/09 04:49:17;;;;;;;48.63;27.13;;;5.80;99.90;;;;;;5125417;28;20178;-69
2021/03/09 04:51:45;;;;;;;52.13;30.25;;;5.80;99.90;;;;;;5125520;28;20938;-69
2021/03/09 04:54:10;;;;;;;45.37;26.60;;;5.80;99.90;;;;;;5126314;28;20162;-69
2021/03/09 04:56:36;;;;;;;50.03;26.37;;;5.70;99.90;;;;;;5126235;28;20190;-69
2021/03/09 04:59:05;;;;;;;52.47;28.57;;;5.60;99.90;;;;;;5126345;28;20410;-69
2021/03/09 05:01:31;;;;;;;46.03;26.73;;;5.80;99.90;;;;;;5129792;28;20247;-69
2021/03/09 05:03:57;;;;;;;50.23;25.27;;;5.70;99.90;;;;;;5130156;28;20155;-69
2021/03/09 05:06:23;;;;;;;51.90;27.07;;;5.70;99.90;;;;;;5130163;28;20185;-69
2021/03/09 05:08:48;;;;;;;50.23;27.67;;;5.90;99.90;;;;;;5129799;28;20410;-69
2021/03/09 05:11:14;;;;;;;47.53;22.47;;;5.90;99.90;;;;;;5128602;28;20162;-69
2021/03/09 05:13:40;;;;;;;43.93;21.57;;;5.90;99.90;;;;;;5128694;28;20172;-69
2021/03/09 05:16:06;;;;;;;47.53;22.73;;;5.80;99.90;;;;;;5130135;28;20250;-69
2021/03/09 05:18:31;;;;;;;48.17;21.93;;;5.80;99.90;;;;;;5129570;28;20170;-69
2021/03/09 05:20:57;;;;;;;49.70;21.53;;;5.80;99.90;;;;;;5129767;28;20166;-69
2021/03/09 05:23:23;;;;;;;48.97;22.87;;;5.60;99.90;;;;;;5129749;28;20174;-69
2021/03/09 05:25:48;;;;;;;50.17;22.93;;;5.80;99.90;;;;;;5129598;28;20194;-69
2021/03/09 05:28:14;;;;;;;47.17;22.70;;;5.80;99.90;;;;;;5128141;28;20623;-69
2021/03/09 05:30:40;;;;;;;55.63;22.80;;;5.80;99.90;;;;;;5128126;28;20170;-69
2021/03/09 05:33:05;;;;;;;53.10;23.53;;;5.80;99.90;;;;;;5129026;28;20175;-69
2021/03/09 05:35:31;;;;;;;58.33;24.20;;;5.90;99.90;;;;;;5129563;28;20175;-69
2021/03/09 05:37:57;;;;;;;52.43;23.37;;;5.70;99.90;;;;;;5129454;28;20183;-69
2021/03/09 05:40:22;;;;;;;48.23;22.37;;;5.70;99.90;;;;;;5127910;28;20185;-69
2021/03/09 05:42:52;;;;;;;58.80;32.80;;;5.80;99.90;;;;;;5126913;28;20404;-69
2021/03/09 05:45:19;;;;;;;58.70;28.73;;;5.80;99.90;;;;;;5129330;28;20163;-69
2021/03/09 05:47:46;;;;;;;55.63;27.93;;;5.80;99.90;;;;;;5128964;28;20253;-69
2021/03/09 05:50:12;;;;;;;52.90;23.50;;;5.90;99.90;;;;;;5129349;28;20166;-69
2021/03/09 05:52:39;;;;;;;58.28;32.70;;;5.80;99.90;;;;;;5127875;28;20437;-69
2021/03/09 05:55:06;;;;;;;54.67;27.30;;;5.90;99.90;;;;;;5129126;27;20187;-69
2021/03/09 05:57:32;;;;;;;55.13;26.30;;;5.90;99.90;;;;;;5129009;28;20191;-69
2021/03/09 05:59:58;;;;;;;50.43;24.27;;;6.00;99.90;;;;;;5129241;28;20158;-70
2021/03/09 06:02:23;;;;;;;53.73;23.73;;;6.00;99.90;;;;;;5128588;28;20170;-70
2021/03/09 06:04:49;;;;;;;48.97;24.20;;;5.90;99.90;;;;;;5127861;28;20162;-70
2021/03/09 06:07:18;;;;;;;54.57;24.63;;;5.90;99.90;;;;;;5129016;28;20169;-69
2021/03/09 06:09:45;;;;;;;45.37;23.53;;;6.00;99.90;;;;;;5129032;28;20166;-70
2021/03/09 06:12:15;;;;;;;54.10;23.73;;;6.10;99.90;;;;;;5128854;28;20190;-70
2021/03/09 06:14:56;;;;;;;53.40;24.10;;;6.00;99.90;;;;;;5127571;28;20183;-70
2021/03/09 06:17:25;;;;;;;49.93;24.77;;;6.30;99.90;;;;;;5128325;28;20424;-70
2021/03/09 06:19:51;;;;;;;59.33;25.63;;;6.30;99.90;;;;;;5127728;28;20162;-69
2021/03/09 06:22:18;;;;;;;53.37;25.10;;;6.40;99.90;;;;;;5128596;28;20163;-70
2021/03/09 06:24:45;;;;;;;60.57;25.73;;;6.30;99.90;;;;;;5128491;28;20226;-69
2021/03/09 06:27:44;;;;;;;54.70;25.83;;;6.40;99.90;;;;;;5128529;28;20167;-70
2021/03/09 06:30:26;;;;;;;52.93;24.47;;;6.30;99.90;;;;;;5094546;28;20215;-70
2021/03/09 06:32:52;;;;;;;62.50;26.57;;;6.50;99.90;;;;;;5127914;28;20178;-69
2021/03/09 06:35:38;;;;;;;51.73;24.93;;;6.50;99.90;;;;;;5128305;28;20182;-69
2021/03/09 06:38:25;;;;;;;56.17;24.83;;;6.50;99.90;;;;;;5128256;28;20196;-65
2021/03/09 06:41:11;;;;;;;55.33;26.90;;;6.50;99.90;;;;;;5128271;28;20175;-66
2021/03/09 06:43:39;;;;;;;61.23;27.13;;;6.50;99.90;;;;;;5128209;28;20166;-66
2021/03/09 06:46:21;;;;;;;53.70;25.50;;;6.40;99.90;;;;;;5128268;28;20166;-65
2021/03/09 06:48:50;;;;;;;64.78;32.78;;;6.40;99.90;;;;;;5127803;28;20824;-65
2021/03/09 06:51:30;;;;;;;64.47;29.43;;;6.40;99.90;;;;;;5127850;27;20171;-65
2021/03/09 06:54:01;;;;;;;56.40;27.67;;;6.30;99.90;;;;;;5128008;28;20558;-65
2021/03/09 06:56:27;;;;;;;66.30;30.52;;;6.40;99.90;;;;;;5126489;28;20434;-65
2021/03/09 06:58:53;;;;;;;61.33;28.20;;;6.50;99.90;;;;;;5127975;28;20166;-65
2021/03/09 07:01:19;;;;;;;60.80;30.00;;;6.50;99.90;;;;;;5127300;27;20238;-66
2021/03/09 07:03:45;;;;;;;55.27;28.57;;;6.40;99.90;;;;;;5127775;28;20159;-65
2021/03/09 07:06:11;;;;;;;56.73;28.60;;;6.50;99.90;;;;;;5127705;28;20189;-65
2021/03/09 07:08:37;;;;;;;63.30;29.97;;;6.50;99.90;;;;;;5127578;28;20194;-65
2021/03/09 07:11:02;;;;;;;62.50;29.93;;;6.60;99.90;;;;;;5127649;28;20173;-65
2021/03/09 07:13:29;;;;;;;60.63;29.60;;;6.60;99.90;;;;;;5127396;28;20167;-65
2021/03/09 07:15:56;;;;;;;56.43;28.97;;;6.50;99.90;;;;;;5127412;28;20187;-65
2021/03/09 07:18:27;;;;;;;61.93;30.63;;;6.60;99.90;;;;;;5127162;28;20231;-65
2021/03/09 07:20:55;;;;;;;60.50;29.57;;;6.60;99.90;;;;;;5127261;28;20186;-65
2021/03/09 07:23:22;;;;;;;64.10;30.03;;;6.50;99.90;;;;;;5126855;28;20182;-65
2021/03/09 07:25:57;;;;;;;59.80;30.27;;;6.50;99.90;;;;;;5127377;28;20246;-65
2021/03/09 07:28:27;;;;;;;59.90;30.77;;;6.60;99.90;;;;;;5126937;28;20210;-65
2021/03/09 07:30:54;;;;;;;59.20;29.83;;;6.80;99.90;;;;;;5125754;28;20223;-65
2021/03/09 07:33:21;;;;;;;63.47;30.70;;;6.90;99.90;;;;;;5126504;28;20237;-65
2021/03/09 07:35:47;;;;;;;62.40;32.90;;;6.90;99.90;;;;;;5127071;28;20238;-65
2021/03/09 07:38:17;;;;;;;56.10;30.30;;;6.70;99.90;;;;;;5127159;28;20163;-65
2021/03/09 07:40:43;;;;;;;60.77;31.73;;;6.60;99.90;;;;;;5126984;28;20202;-66
2021/03/09 07:43:09;;;;;;;58.60;31.20;;;6.50;99.90;;;;;;5126867;28;20184;-65
2021/03/09 07:45:37;;;;;;;66.73;32.47;;;6.60;99.90;;;;;;5126937;28;20171;-65
2021/03/09 07:48:04;;;;;;;65.57;33.00;;;6.70;99.90;;;;;;5126443;28;20234;-66
2021/03/09 07:50:35;;;;;;;71.27;35.37;;;6.90;99.90;;;;;;5126503;28;20163;-66
2021/03/09 07:53:12;;;;;;;76.03;36.43;;;6.80;99.90;;;;;;5125727;28;20280;-66
2021/03/09 07:55:39;;;;;;;63.20;32.93;;;6.80;99.90;;;;;;5126529;27;20187;-66
2021/03/09 07:58:25;;;;;;;70.87;35.20;;;6.70;99.90;;;;;;5126781;28;20161;-66
2021/03/09 08:01:16;;;;;;;86.87;38.33;;;6.70;99.90;;;;;;5126616;28;20163;-66
2021/03/09 08:03:42;;;;;;;70.67;34.63;;;6.70;99.90;;;;;;5125496;28;20234;-66
2021/03/09 08:06:16;;;;;;;86.87;40.63;;;6.80;99.90;;;;;;5125743;28;20184;-66
2021/03/09 08:08:52;;;;;;;74.15;42.72;;;7.00;99.90;;;;;;5123911;28;20422;-66
2021/03/09 08:11:20;;;;;;;68.07;36.40;;;7.50;99.90;;;;;;5122875;28;20197;-66
2021/03/09 08:13:47;;;;;;;63.50;32.83;;;7.20;99.90;;;;;;5125599;28;20368;-66
2021/03/09 08:16:19;;;;;;;67.13;36.45;;;7.20;99.90;;;;;;5125668;28;20429;-66
2021/03/09 08:18:48;;;;;;;68.90;36.20;;;7.30;99.90;;;;;;5124198;28;20178;-66
2021/03/09 08:21:15;;;;;;;65.90;36.03;;;7.30;99.90;;;;;;5123322;28;20238;-66
2021/03/09 08:23:41;;;;;;;59.07;33.20;;;7.30;99.90;;;;;;5124070;28;20167;-66
2021/03/09 08:26:21;;;;;;;70.13;33.23;;;7.20;99.90;;;;;;5125408;28;20226;-66
2021/03/09 08:28:47;;;;;;;61.90;33.10;;;7.00;99.90;;;;;;5125490;28;20248;-66
2021/03/09 08:31:13;;;;;;;60.87;32.60;;;7.10;99.90;;;;;;5122779;28;20171;-66
2021/03/09 08:33:54;;;;;;;61.47;33.57;;;7.10;99.90;;;;;;5123834;28;20187;-66
2021/03/09 08:36:20;;;;;;;65.57;34.67;;;7.10;99.90;;;;;;5129850;28;20279;-67
2021/03/09 08:39:09;;;;;;;71.70;35.13;;;7.20;99.90;;;;;;5128657;28;20163;-66
2021/03/09 08:41:35;;;;;;;69.13;37.67;;;7.40;99.90;;;;;;5114701;28;20208;-67
2021/03/09 08:44:26;;;;;;;75.23;37.30;;;7.30;99.90;;;;;;5128634;28;20200;-67
2021/03/09 08:47:07;;;;;;;71.57;37.77;;;7.20;99.90;;;;;;5129822;28;20561;-67
2021/03/09 08:49:36;;;;;;;80.47;41.60;;;7.10;99.90;;;;;;5128938;28;20165;-67
2021/03/09 08:52:01;;;;;;;74.17;37.00;;;7.00;99.90;;;;;;5127958;28;20163;-67
2021/03/09 08:54:32;;;;;;;73.23;38.83;;;7.00;99.90;;;;;;5129240;28;20170;-66
2021/03/09 08:57:00;;;;;;;75.27;37.37;;;7.00;99.90;;;;;;5129833;28;20162;-65
2021/03/09 08:59:29;;;;;;;64.23;35.70;;;7.00;99.90;;;;;;5128489;28;20163;-66
2021/03/09 09:02:10;;;;;;;64.60;33.23;;;7.00;99.90;;;;;;5127101;28;20162;-66
2021/03/09 09:04:36;;;;;;;72.43;34.90;;;6.90;99.90;;;;;;5128989;28;20173;-66
2021/03/09 09:07:23;;;;;;;65.03;34.90;;;6.90;99.90;;;;;;5129477;28;20162;-66
2021/03/09 09:09:51;;;;;;;71.20;36.10;;;6.90;99.90;;;;;;5126270;28;20197;-65
2021/03/09 09:12:21;;;;;;;67.27;35.13;;;6.90;99.90;;;;;;5127475;28;20352;-66
2021/03/09 09:14:59;;;;;;;70.40;37.03;;;6.90;99.90;;;;;;5128727;28;20667;-69
2021/03/09 09:17:29;;;;;;;66.67;37.80;;;7.00;99.90;;;;;;5129013;28;20174;-65
2021/03/09 09:19:59;;;;;;;63.10;33.67;;;7.10;99.90;;;;;;5126790;28;20405;-66
2021/03/09 09:22:26;;;;;;;54.60;31.30;;;7.10;99.90;;;;;;5129223;28;20215;-66
2021/03/09 09:25:10;;;;;;;67.63;33.57;;;7.20;99.90;;;;;;5129162;28;20167;-66
2021/03/09 09:27:51;;;;;;;63.17;31.13;;;7.30;99.90;;;;;;5128664;28;20243;-65
2021/03/09 09:30:23;;;;;;;59.37;32.30;;;7.40;99.90;;;;;;5125372;28;20623;-65
2021/03/09 09:32:55;;;;;;;62.83;32.37;;;7.50;99.90;;;;;;5125987;28;20175;-66
2021/03/09 09:35:24;;;;;;;60.57;31.67;;;7.70;99.90;;;;;;5127551;28;20201;-65
2021/03/09 09:37:53;;;;;;;63.87;38.53;;;7.70;99.90;;;;;;5126194;28;20456;-66
2021/03/09 09:40:21;;;;;;;92.80;44.70;;;7.90;99.90;;;;;;5125292;28;20407;-64
2021/03/09 09:42:55;;;;;;;126.33;52.53;;;7.90;99.90;;;;;;5127503;28;20248;-65
2021/03/09 09:45:20;;;;;;;102.00;45.95;;;7.90;99.90;;;;;;5127392;28;20953;-64
2021/03/09 09:47:48;;;;;;;153.97;64.83;;;7.80;99.90;;;;;;5126063;28;20455;-64
2021/03/09 09:50:14;;;;;;;66.77;38.03;;;7.90;99.90;;;;;;5125338;28;20255;-65
2021/03/09 09:52:40;;;;;;;70.93;36.67;;;7.80;99.90;;;;;;5127674;28;20171;-65
2021/03/09 09:55:06;;;;;;;61.97;35.40;;;8.00;99.90;;;;;;5127349;28;20427;-65
2021/03/09 09:57:31;;;;;;;65.90;35.57;;;8.20;99.90;;;;;;5127441;28;20181;-66
2021/03/09 10:00:12;;;;;;;57.00;33.47;;;8.20;99.90;;;;;;5125067;28;20723;-65
2021/03/09 10:02:37;;;;;;;55.90;33.00;;;8.20;99.90;;;;;;5126902;28;20178;-65
2021/03/09 10:05:04;;;;;;;56.10;31.83;;;8.20;99.90;;;;;;5127506;28;20161;-65
2021/03/09 10:07:29;;;;;;;58.60;31.67;;;8.10;99.90;;;;;;5125991;28;20201;-66
2021/03/09 10:10:09;;;;;;;56.33;34.03;;;8.10;99.90;;;;;;5125073;28;20167;-65
2021/03/09 10:12:39;;;;;;;54.90;33.33;;;8.10;99.90;;;;;;5127057;28;20167;-65
2021/03/09 10:15:07;;;;;;;66.40;35.87;;;8.10;99.90;;;;;;5127304;28;20190;-68
2021/03/09 10:17:34;;;;;;;71.73;38.60;;;7.90;99.90;;;;;;5126807;28;20239;-74
2021/03/09 10:20:00;;;;;;;70.83;41.40;;;7.90;99.90;;;;;;5125319;28;20177;-75
2021/03/09 10:22:27;;;;;;;68.87;39.97;;;7.90;99.90;;;;;;5128778;28;20632;-74
2021/03/09 10:25:06;;;;;;;63.97;36.23;;;7.80;99.90;;;;;;5128068;28;20159;-74
2021/03/09 10:27:31;;;;;;;61.00;35.40;;;7.80;99.90;;;;;;5105700;28;602265;-74
2021/03/09 10:29:58;;;;;;;57.50;33.90;;;7.80;99.90;;;;;;5125673;28;20162;-74
2021/03/09 10:32:24;;;;;;;66.33;35.97;;;7.90;99.90;;;;;;5160646;27;20215;-74
2021/03/09 10:34:55;;;;;;;57.60;36.20;;;7.90;99.90;;;;;;5126612;28;20266;-74
2021/03/09 10:37:41;;;;;;;66.90;35.13;;;8.00;99.90;;;;;;5127988;28;20179;-75
2021/03/09 10:40:12;;;;;;;51.33;30.03;;;8.10;99.90;;;;;;5125302;28;20507;-75
2021/03/09 10:42:42;;;;;;;43.00;27.47;;;8.30;99.90;;;;;;5127635;28;20216;-74
2021/03/09 10:45:34;;;;;;;49.00;32.60;;;8.40;99.90;;;;;;5126969;28;20410;-74
2021/03/09 10:48:01;;;;;;;43.57;27.23;;;8.40;99.90;;;;;;5123294;28;20242;-74
2021/03/09 10:50:29;;;;;;;41.77;28.20;;;8.40;99.90;;;;;;5124994;28;20170;-73
2021/03/09 10:52:55;;;;;;;41.23;26.63;;;8.40;99.90;;;;;;5126702;28;20205;-74
2021/03/09 10:55:21;;;;;;;38.67;26.03;;;8.50;99.90;;;;;;5127706;28;20187;-74
2021/03/09 10:57:47;;;;;;;43.80;26.57;;;8.50;99.90;;;;;;5159691;27;20174;-73
2021/03/09 11:00:15;;;;;;;40.97;25.60;;;8.40;99.90;;;;;;5125070;28;20147;-73
2021/03/09 11:02:41;;;;;;;51.50;29.73;;;8.30;99.90;;;;;;5126554;28;20566;-73
2021/03/09 11:05:07;;;;;;;51.37;29.90;;;8.10;99.90;;;;;;5127448;28;20170;-73
2021/03/09 11:07:33;;;;;;;49.03;30.40;;;8.10;99.90;;;;;;5127354;28;20179;-72
2021/03/09 11:09:59;;;;;;;49.33;30.87;;;7.90;99.90;;;;;;5124880;28;20247;-73
2021/03/09 11:12:24;;;;;;;57.30;31.07;;;7.90;99.90;;;;;;5126790;28;20163;-74
2021/03/09 11:14:50;;;;;;;54.13;31.70;;;7.90;99.90;;;;;;5125373;28;20221;-74
2021/03/09 11:17:16;;;;;;;47.70;30.90;;;7.90;99.90;;;;;;5126292;28;20254;-73
2021/03/09 11:19:42;;;;;;;58.70;36.65;;;7.90;99.90;;;;;;5124672;28;20395;-73
2021/03/09 11:22:07;;;;;;;58.20;33.00;;;8.10;99.90;;;;;;5125650;28;20166;-74
2021/03/09 11:24:34;;;;;;;49.97;30.43;;;8.10;99.90;;;;;;5126366;28;20154;-73
2021/03/09 11:27:01;;;;;;;63.60;37.27;;;8.00;99.90;;;;;;5125324;28;20174;-73
2021/03/09 11:29:28;;;;;;;52.60;31.50;;;8.00;99.90;;;;;;5126062;28;20235;-73
2021/03/09 11:31:53;;;;;;;54.13;31.77;;;8.00;99.90;;;;;;5122953;28;20155;-73
2021/03/09 11:34:19;;;;;;;50.57;30.00;;;8.00;99.90;;;;;;5126458;28;20635;-74
2021/03/09 11:36:44;;;;;;;49.43;31.60;;;8.00;99.90;;;;;;5126134;28;20186;-74
2021/03/09 11:39:10;;;;;;;49.10;32.63;;;8.10;99.90;;;;;;5125551;28;20155;-74
2021/03/09 11:41:36;;;;;;;46.10;29.93;;;8.10;99.90;;;;;;5124016;28;20155;-74
2021/03/09 11:44:02;;;;;;;46.93;31.10;;;8.20;99.90;;;;;;5126362;28;20154;-74
2021/03/09 11:46:28;;;;;;;48.20;30.50;;;8.30;99.90;;;;;;5126165;28;20167;-74
2021/03/09 11:48:53;;;;;;;46.90;29.20;;;8.30;99.90;;;;;;5126329;28;20170;-74
2021/03/09 11:51:19;;;;;;;42.10;26.67;;;8.40;99.90;;;;;;5123613;28;20181;-74
2021/03/09 11:53:44;;;;;;;40.67;26.67;;;8.40;99.90;;;;;;5125810;28;20213;-74
2021/03/09 11:56:10;;;;;;;39.87;25.43;;;8.50;99.90;;;;;;5159377;27;20194;-75
2021/03/09 11:58:36;;;;;;;33.57;24.07;;;8.60;99.90;;;;;;5157842;27;20167;-75
2021/03/09 12:01:02;;;;;;;35.00;24.23;;;8.60;99.90;;;;;;5121586;28;20175;-74
2021/03/09 12:03:28;;;;;;;39.23;24.57;;;8.60;99.90;;;;;;5124390;28;20507;-76
2021/03/09 12:05:53;;;;;;;36.17;24.73;;;8.50;99.90;;;;;;5124509;28;20162;-75
2021/03/09 12:08:19;;;;;;;40.90;23.93;;;8.30;99.90;;;;;;5125776;28;20520;-74
2021/03/09 12:10:45;;;;;;;39.77;25.30;;;8.20;99.90;;;;;;5123499;28;20170;-73
2021/03/09 12:13:11;;;;;;;38.30;23.53;;;8.10;99.90;;;;;;5124293;28;20632;-72
2021/03/09 12:15:36;;;;;;;36.57;24.47;;;7.90;99.90;;;;;;5125843;28;20219;-72
2021/03/09 12:18:02;;;;;;;41.10;27.40;;;7.70;99.90;;;;;;5125243;28;20532;-73
2021/03/09 12:20:28;;;;;;;43.63;27.57;;;7.80;99.90;;;;;;5123261;28;20167;-73
2021/03/09 12:22:54;;;;;;;43.07;28.50;;;8.00;99.90;;;;;;5124602;28;20167;-73
2021/03/09 12:25:19;;;;;;;38.70;26.77;;;8.20;99.90;;;;;;5125134;28;20193;-75
2021/03/09 12:27:45;;;;;;;42.50;26.17;;;8.20;99.90;;;;;;5125297;28;20214;-75
2021/03/09 12:30:11;;;;;;;38.20;25.40;;;8.20;99.90;;;;;;5122712;28;20167;-75
2021/03/09 12:32:38;;;;;;;40.43;26.13;;;8.30;99.90;;;;;;5125367;28;20170;-75
2021/03/09 12:35:06;;;;;;;30.73;22.57;;;8.30;99.90;;;;;;5124100;28;20205;-73
2021/03/09 12:37:31;;;;;;;37.43;23.63;;;8.30;99.90;;;;;;5125269;28;20173;-73
2021/03/09 12:39:57;;;;;;;32.20;23.07;;;8.30;99.90;;;;;;5156023;27;20163;-74
2021/03/09 12:42:23;;;;;;;28.53;22.27;;;8.30;99.90;;;;;;5125726;28;20163;-73
2021/03/09 12:44:49;;;;;;;33.90;22.10;;;8.40;99.90;;;;;;5124054;28;20234;-74